sensor_id;sensor_type;location;lat;lon;timestamp;P1;durP1;ratioP1;P2;durP2;ratioP2
19127;SDS011;9696;53.686;10.094;2022-09-09T00:01:20;100.17;;;18.13;;
19127;SDS011;9696;53.686;10.094;2022-09-09T00:04:02;163.27;;;18.90;;
19127;SDS011;9696;53.686;10.094;2022-09-09T00:06:42;169.33;;;19.93;;
19127;SDS011;9696;53.686;10.094;2022-09-09T00:09:15;106.43;;;18.03;;
19127;SDS011;9696;53.686;10.094;2022-09-09T00:11:47;256.97;;;20.93;;
19127;SDS011;9696;53.686;10.094;2022-09-09T00:14:21;77.20;;;19.17;;
19127;SDS011;9696;53.686;10.094;2022-09-09T00:16:58;64.43;;;17.53;;
19127;SDS011;9696;53.686;10.094;2022-09-09T00:19:35;162.63;;;20.50;;
19127;SDS011;9696;53.686;10.094;2022-09-09T00:22:13;122.70;;;20.93;;
19127;SDS011;9696;53.686;10.094;2022-09-09T00:24:46;80.83;;;18.80;;
19127;SDS011;9696;53.686;10.094;2022-09-09T00:27:22;99.20;;;18.47;;
19127;SDS011;9696;53.686;10.094;2022-09-09T00:29:58;186.77;;;21.83;;
19127;SDS011;9696;53.686;10.094;2022-09-09T00:32:41;291.50;;;23.57;;
19127;SDS011;9696;53.686;10.094;2022-09-09T00:35:16;89.43;;;20.30;;
19127;SDS011;9696;53.686;10.094;2022-09-09T00:37:50;181.77;;;22.00;;
19127;SDS011;9696;53.686;10.094;2022-09-09T00:40:23;269.23;;;23.43;;
19127;SDS011;9696;53.686;10.094;2022-09-09T00:43:02;325.60;;;23.97;;
19127;SDS011;9696;53.686;10.094;2022-09-09T00:45:51;133.97;;;21.10;;
19127;SDS011;9696;53.686;10.094;2022-09-09T00:48:40;127.73;;;21.80;;
19127;SDS011;9696;53.686;10.094;2022-09-09T00:51:22;454.27;;;27.40;;
19127;SDS011;9696;53.686;10.094;2022-09-09T00:54:12;365.20;;;26.23;;
19127;SDS011;9696;53.686;10.094;2022-09-09T00:56:53;289.33;;;25.63;;
19127;SDS011;9696;53.686;10.094;2022-09-09T00:59:32;132.63;;;21.80;;
19127;SDS011;9696;53.686;10.094;2022-09-09T01:02:18;200.53;;;23.77;;
19127;SDS011;9696;53.686;10.094;2022-09-09T01:04:56;236.00;;;24.80;;
19127;SDS011;9696;53.686;10.094;2022-09-09T01:07:31;86.60;;;22.23;;
19127;SDS011;9696;53.686;10.094;2022-09-09T01:10:01;156.57;;;24.30;;
19127;SDS011;9696;53.686;10.094;2022-09-09T01:12:40;100.80;;;21.57;;
19127;SDS011;9696;53.686;10.094;2022-09-09T01:15:17;77.07;;;20.70;;
19127;SDS011;9696;53.686;10.094;2022-09-09T01:17:53;161.30;;;20.50;;
19127;SDS011;9696;53.686;10.094;2022-09-09T01:20:31;174.87;;;21.97;;
19127;SDS011;9696;53.686;10.094;2022-09-09T01:23:15;89.63;;;19.67;;
19127;SDS011;9696;53.686;10.094;2022-09-09T01:26:26;120.17;;;21.63;;
19127;SDS011;9696;53.686;10.094;2022-09-09T01:29:01;125.53;;;20.63;;
19127;SDS011;9696;53.686;10.094;2022-09-09T01:31:38;76.93;;;20.07;;
19127;SDS011;9696;53.686;10.094;2022-09-09T01:34:11;136.07;;;21.43;;
19127;SDS011;9696;53.686;10.094;2022-09-09T01:36:42;96.33;;;19.43;;
19127;SDS011;9696;53.686;10.094;2022-09-09T01:39:17;74.80;;;18.97;;
19127;SDS011;9696;53.686;10.094;2022-09-09T01:41:56;68.70;;;19.73;;
19127;SDS011;9696;53.686;10.094;2022-09-09T01:44:27;53.50;;;19.20;;
19127;SDS011;9696;53.686;10.094;2022-09-09T01:46:57;47.07;;;18.07;;
19127;SDS011;9696;53.686;10.094;2022-09-09T01:49:26;46.33;;;18.50;;
19127;SDS011;9696;53.686;10.094;2022-09-09T01:51:56;45.00;;;19.73;;
19127;SDS011;9696;53.686;10.094;2022-09-09T01:54:35;34.00;;;14.93;;
19127;SDS011;9696;53.686;10.094;2022-09-09T01:57:15;39.63;;;17.23;;
19127;SDS011;9696;53.686;10.094;2022-09-09T01:59:51;41.07;;;15.67;;
19127;SDS011;9696;53.686;10.094;2022-09-09T02:02:42;35.93;;;16.50;;
19127;SDS011;9696;53.686;10.094;2022-09-09T02:05:28;52.63;;;16.53;;
19127;SDS011;9696;53.686;10.094;2022-09-09T02:08:07;46.53;;;16.67;;
19127;SDS011;9696;53.686;10.094;2022-09-09T02:10:50;51.70;;;16.27;;
19127;SDS011;9696;53.686;10.094;2022-09-09T02:13:36;37.33;;;16.47;;
19127;SDS011;9696;53.686;10.094;2022-09-09T02:16:12;30.93;;;15.27;;
19127;SDS011;9696;53.686;10.094;2022-09-09T02:18:48;33.47;;;15.87;;
19127;SDS011;9696;53.686;10.094;2022-09-09T02:21:26;49.37;;;17.37;;
19127;SDS011;9696;53.686;10.094;2022-09-09T02:23:57;43.77;;;16.73;;
19127;SDS011;9696;53.686;10.094;2022-09-09T02:26:33;37.40;;;16.03;;
19127;SDS011;9696;53.686;10.094;2022-09-09T02:29:08;78.07;;;17.47;;
19127;SDS011;9696;53.686;10.094;2022-09-09T02:31:42;61.10;;;17.13;;
19127;SDS011;9696;53.686;10.094;2022-09-09T02:34:19;36.73;;;15.47;;
19127;SDS011;9696;53.686;10.094;2022-09-09T02:36:51;34.43;;;16.83;;
19127;SDS011;9696;53.686;10.094;2022-09-09T02:39:23;88.30;;;17.27;;
19127;SDS011;9696;53.686;10.094;2022-09-09T02:41:52;37.50;;;16.00;;
19127;SDS011;9696;53.686;10.094;2022-09-09T02:44:29;45.77;;;16.93;;
19127;SDS011;9696;53.686;10.094;2022-09-09T02:49:59;41.77;;;16.23;;
19127;SDS011;9696;53.686;10.094;2022-09-09T02:52:38;44.03;;;17.50;;
19127;SDS011;9696;53.686;10.094;2022-09-09T02:55:16;78.07;;;17.90;;
19127;SDS011;9696;53.686;10.094;2022-09-09T02:57:54;52.07;;;16.10;;
19127;SDS011;9696;53.686;10.094;2022-09-09T03:00:29;36.00;;;16.53;;
19127;SDS011;9696;53.686;10.094;2022-09-09T03:03:00;95.63;;;18.40;;
19127;SDS011;9696;53.686;10.094;2022-09-09T03:05:32;40.20;;;17.30;;
19127;SDS011;9696;53.686;10.094;2022-09-09T03:08:01;85.27;;;17.57;;
19127;SDS011;9696;53.686;10.094;2022-09-09T03:10:32;46.70;;;16.10;;
19127;SDS011;9696;53.686;10.094;2022-09-09T03:13:02;42.10;;;16.17;;
19127;SDS011;9696;53.686;10.094;2022-09-09T03:15:37;96.57;;;17.13;;
19127;SDS011;9696;53.686;10.094;2022-09-09T03:18:09;51.73;;;15.87;;
19127;SDS011;9696;53.686;10.094;2022-09-09T03:20:38;55.43;;;15.23;;
19127;SDS011;9696;53.686;10.094;2022-09-09T03:23:09;83.17;;;17.97;;
19127;SDS011;9696;53.686;10.094;2022-09-09T03:25:46;97.50;;;17.50;;
19127;SDS011;9696;53.686;10.094;2022-09-09T03:28:19;73.57;;;16.30;;
19127;SDS011;9696;53.686;10.094;2022-09-09T03:30:51;32.57;;;15.90;;
19127;SDS011;9696;53.686;10.094;2022-09-09T03:33:20;49.80;;;16.50;;
19127;SDS011;9696;53.686;10.094;2022-09-09T03:35:49;68.73;;;16.43;;
19127;SDS011;9696;53.686;10.094;2022-09-09T03:38:20;51.03;;;16.13;;
19127;SDS011;9696;53.686;10.094;2022-09-09T03:40:49;56.97;;;16.80;;
19127;SDS011;9696;53.686;10.094;2022-09-09T03:43:21;65.47;;;16.80;;
19127;SDS011;9696;53.686;10.094;2022-09-09T03:45:53;64.30;;;17.77;;
19127;SDS011;9696;53.686;10.094;2022-09-09T03:48:25;42.83;;;17.27;;
19127;SDS011;9696;53.686;10.094;2022-09-09T03:50:55;35.83;;;16.67;;
19127;SDS011;9696;53.686;10.094;2022-09-09T03:53:29;33.07;;;14.43;;
19127;SDS011;9696;53.686;10.094;2022-09-09T03:55:58;28.87;;;15.70;;
19127;SDS011;9696;53.686;10.094;2022-09-09T03:58:29;33.60;;;15.87;;
19127;SDS011;9696;53.686;10.094;2022-09-09T04:01:08;30.53;;;16.33;;
19127;SDS011;9696;53.686;10.094;2022-09-09T04:03:41;41.60;;;16.73;;
19127;SDS011;9696;53.686;10.094;2022-09-09T04:06:11;30.77;;;15.87;;
19127;SDS011;9696;53.686;10.094;2022-09-09T04:08:44;32.60;;;16.13;;
19127;SDS011;9696;53.686;10.094;2022-09-09T04:11:15;30.60;;;15.43;;
19127;SDS011;9696;53.686;10.094;2022-09-09T04:13:46;34.63;;;16.00;;
19127;SDS011;9696;53.686;10.094;2022-09-09T04:16:18;37.93;;;16.90;;
19127;SDS011;9696;53.686;10.094;2022-09-09T04:18:48;36.90;;;15.40;;
19127;SDS011;9696;53.686;10.094;2022-09-09T04:21:17;27.63;;;13.70;;
19127;SDS011;9696;53.686;10.094;2022-09-09T04:23:46;38.30;;;16.57;;
19127;SDS011;9696;53.686;10.094;2022-09-09T04:26:15;47.33;;;16.53;;
19127;SDS011;9696;53.686;10.094;2022-09-09T04:28:45;31.07;;;16.20;;
19127;SDS011;9696;53.686;10.094;2022-09-09T04:31:19;33.77;;;16.60;;
19127;SDS011;9696;53.686;10.094;2022-09-09T04:33:53;36.23;;;15.67;;
19127;SDS011;9696;53.686;10.094;2022-09-09T04:36:22;27.87;;;15.27;;
19127;SDS011;9696;53.686;10.094;2022-09-09T04:38:57;33.70;;;17.30;;
19127;SDS011;9696;53.686;10.094;2022-09-09T04:41:26;30.73;;;15.87;;
19127;SDS011;9696;53.686;10.094;2022-09-09T04:43:55;33.13;;;17.27;;
19127;SDS011;9696;53.686;10.094;2022-09-09T04:46:25;31.90;;;17.13;;
19127;SDS011;9696;53.686;10.094;2022-09-09T04:48:56;28.53;;;15.13;;
19127;SDS011;9696;53.686;10.094;2022-09-09T04:51:29;32.70;;;16.07;;
19127;SDS011;9696;53.686;10.094;2022-09-09T04:53:58;39.47;;;17.43;;
19127;SDS011;9696;53.686;10.094;2022-09-09T04:56:27;40.17;;;17.60;;
19127;SDS011;9696;53.686;10.094;2022-09-09T04:58:58;32.40;;;16.80;;
19127;SDS011;9696;53.686;10.094;2022-09-09T05:01:51;28.13;;;15.67;;
19127;SDS011;9696;53.686;10.094;2022-09-09T05:04:22;28.00;;;14.30;;
19127;SDS011;9696;53.686;10.094;2022-09-09T05:06:51;29.70;;;14.80;;
19127;SDS011;9696;53.686;10.094;2022-09-09T05:09:20;23.37;;;13.27;;
19127;SDS011;9696;53.686;10.094;2022-09-09T05:11:51;29.53;;;13.80;;
19127;SDS011;9696;53.686;10.094;2022-09-09T05:14:28;23.43;;;13.63;;
19127;SDS011;9696;53.686;10.094;2022-09-09T05:17:01;25.60;;;12.70;;
19127;SDS011;9696;53.686;10.094;2022-09-09T05:19:30;23.40;;;13.57;;
19127;SDS011;9696;53.686;10.094;2022-09-09T05:21:59;24.10;;;12.10;;
19127;SDS011;9696;53.686;10.094;2022-09-09T05:24:36;22.63;;;12.53;;
19127;SDS011;9696;53.686;10.094;2022-09-09T05:27:05;22.33;;;13.60;;
19127;SDS011;9696;53.686;10.094;2022-09-09T05:29:34;24.53;;;13.10;;
19127;SDS011;9696;53.686;10.094;2022-09-09T05:32:06;26.63;;;12.00;;
19127;SDS011;9696;53.686;10.094;2022-09-09T05:34:42;22.50;;;11.97;;
19127;SDS011;9696;53.686;10.094;2022-09-09T05:37:11;22.60;;;11.73;;
19127;SDS011;9696;53.686;10.094;2022-09-09T05:39:41;21.40;;;10.83;;
19127;SDS011;9696;53.686;10.094;2022-09-09T05:42:11;22.10;;;11.57;;
19127;SDS011;9696;53.686;10.094;2022-09-09T05:44:40;20.97;;;10.97;;
19127;SDS011;9696;53.686;10.094;2022-09-09T05:47:13;15.87;;;10.07;;
19127;SDS011;9696;53.686;10.094;2022-09-09T05:49:42;19.50;;;11.23;;
19127;SDS011;9696;53.686;10.094;2022-09-09T05:52:12;19.03;;;11.40;;
19127;SDS011;9696;53.686;10.094;2022-09-09T05:54:41;15.47;;;10.27;;
19127;SDS011;9696;53.686;10.094;2022-09-09T05:57:10;19.83;;;11.17;;
19127;SDS011;9696;53.686;10.094;2022-09-09T05:59:39;19.00;;;10.83;;
19127;SDS011;9696;53.686;10.094;2022-09-09T06:02:08;21.03;;;11.43;;
19127;SDS011;9696;53.686;10.094;2022-09-09T06:04:40;16.53;;;10.53;;
19127;SDS011;9696;53.686;10.094;2022-09-09T06:07:10;16.30;;;10.10;;
19127;SDS011;9696;53.686;10.094;2022-09-09T06:09:41;20.17;;;9.97;;
19127;SDS011;9696;53.686;10.094;2022-09-09T06:12:11;15.47;;;9.23;;
19127;SDS011;9696;53.686;10.094;2022-09-09T06:14:40;18.13;;;9.57;;
19127;SDS011;9696;53.686;10.094;2022-09-09T06:17:13;18.57;;;9.40;;
19127;SDS011;9696;53.686;10.094;2022-09-09T06:19:44;14.70;;;8.83;;
19127;SDS011;9696;53.686;10.094;2022-09-09T06:22:13;14.87;;;9.10;;
19127;SDS011;9696;53.686;10.094;2022-09-09T06:24:42;13.90;;;8.43;;
19127;SDS011;9696;53.686;10.094;2022-09-09T06:27:11;12.80;;;8.50;;
19127;SDS011;9696;53.686;10.094;2022-09-09T06:29:41;17.13;;;7.87;;
19127;SDS011;9696;53.686;10.094;2022-09-09T06:32:10;10.93;;;7.13;;
19127;SDS011;9696;53.686;10.094;2022-09-09T06:34:39;11.50;;;7.73;;
19127;SDS011;9696;53.686;10.094;2022-09-09T06:37:10;12.73;;;6.97;;
19127;SDS011;9696;53.686;10.094;2022-09-09T06:39:45;16.20;;;6.60;;
19127;SDS011;9696;53.686;10.094;2022-09-09T06:42:15;10.63;;;6.33;;
19127;SDS011;9696;53.686;10.094;2022-09-09T06:45:03;10.20;;;5.93;;
19127;SDS011;9696;53.686;10.094;2022-09-09T06:47:41;14.33;;;6.27;;
19127;SDS011;9696;53.686;10.094;2022-09-09T06:50:10;10.83;;;6.47;;
19127;SDS011;9696;53.686;10.094;2022-09-09T06:52:41;13.27;;;6.03;;
19127;SDS011;9696;53.686;10.094;2022-09-09T06:55:10;7.93;;;5.80;;
19127;SDS011;9696;53.686;10.094;2022-09-09T06:57:40;17.37;;;6.23;;
19127;SDS011;9696;53.686;10.094;2022-09-09T07:00:14;9.13;;;5.93;;
19127;SDS011;9696;53.686;10.094;2022-09-09T07:02:43;10.83;;;6.10;;
19127;SDS011;9696;53.686;10.094;2022-09-09T07:05:13;11.93;;;5.87;;
19127;SDS011;9696;53.686;10.094;2022-09-09T07:07:46;12.17;;;5.87;;
19127;SDS011;9696;53.686;10.094;2022-09-09T07:10:18;10.40;;;5.87;;
19127;SDS011;9696;53.686;10.094;2022-09-09T07:12:50;12.10;;;6.30;;
19127;SDS011;9696;53.686;10.094;2022-09-09T07:15:22;10.57;;;6.60;;
19127;SDS011;9696;53.686;10.094;2022-09-09T07:17:51;8.63;;;5.47;;
19127;SDS011;9696;53.686;10.094;2022-09-09T07:20:20;13.90;;;5.50;;
19127;SDS011;9696;53.686;10.094;2022-09-09T07:22:55;9.37;;;5.97;;
19127;SDS011;9696;53.686;10.094;2022-09-09T07:25:25;10.30;;;6.17;;
19127;SDS011;9696;53.686;10.094;2022-09-09T07:27:56;9.43;;;6.07;;
19127;SDS011;9696;53.686;10.094;2022-09-09T07:30:25;9.23;;;5.50;;
19127;SDS011;9696;53.686;10.094;2022-09-09T07:32:55;7.72;;;5.00;;
19127;SDS011;9696;53.686;10.094;2022-09-09T07:35:26;6.22;;;3.67;;
19127;SDS011;9696;53.686;10.094;2022-09-09T07:37:56;8.05;;;3.92;;
19127;SDS011;9696;53.686;10.094;2022-09-09T07:40:25;7.68;;;4.03;;
19127;SDS011;9696;53.686;10.094;2022-09-09T07:42:55;7.05;;;3.78;;
19127;SDS011;9696;53.686;10.094;2022-09-09T07:45:25;7.15;;;3.72;;
19127;SDS011;9696;53.686;10.094;2022-09-09T07:47:55;5.75;;;3.58;;
19127;SDS011;9696;53.686;10.094;2022-09-09T07:50:25;5.15;;;3.38;;
19127;SDS011;9696;53.686;10.094;2022-09-09T07:52:54;8.55;;;3.35;;
19127;SDS011;9696;53.686;10.094;2022-09-09T07:55:26;6.28;;;3.75;;
19127;SDS011;9696;53.686;10.094;2022-09-09T07:57:55;9.25;;;3.75;;
19127;SDS011;9696;53.686;10.094;2022-09-09T08:00:24;7.30;;;3.90;;
19127;SDS011;9696;53.686;10.094;2022-09-09T08:02:56;7.65;;;3.35;;
19127;SDS011;9696;53.686;10.094;2022-09-09T08:05:25;6.53;;;3.80;;
19127;SDS011;9696;53.686;10.094;2022-09-09T08:07:54;5.45;;;3.70;;
19127;SDS011;9696;53.686;10.094;2022-09-09T08:10:25;5.15;;;3.35;;
19127;SDS011;9696;53.686;10.094;2022-09-09T08:12:54;7.47;;;3.20;;
19127;SDS011;9696;53.686;10.094;2022-09-09T08:15:43;11.38;;;3.95;;
19127;SDS011;9696;53.686;10.094;2022-09-09T08:18:13;6.40;;;4.15;;
19127;SDS011;9696;53.686;10.094;2022-09-09T08:20:43;12.98;;;4.00;;
19127;SDS011;9696;53.686;10.094;2022-09-09T08:23:15;7.88;;;3.40;;
19127;SDS011;9696;53.686;10.094;2022-09-09T08:25:44;7.45;;;3.70;;
19127;SDS011;9696;53.686;10.094;2022-09-09T08:28:15;5.57;;;3.42;;
19127;SDS011;9696;53.686;10.094;2022-09-09T08:30:44;12.32;;;3.58;;
19127;SDS011;9696;53.686;10.094;2022-09-09T08:33:15;11.18;;;3.40;;
19127;SDS011;9696;53.686;10.094;2022-09-09T08:35:49;6.38;;;3.30;;
19127;SDS011;9696;53.686;10.094;2022-09-09T08:38:20;4.35;;;3.30;;
19127;SDS011;9696;53.686;10.094;2022-09-09T08:40:49;8.82;;;3.53;;
19127;SDS011;9696;53.686;10.094;2022-09-09T08:43:26;6.63;;;3.13;;
19127;SDS011;9696;53.686;10.094;2022-09-09T08:45:57;8.60;;;3.13;;
19127;SDS011;9696;53.686;10.094;2022-09-09T08:51:24;3.55;;;2.70;;
19127;SDS011;9696;53.686;10.094;2022-09-09T08:53:58;8.90;;;2.15;;
19127;SDS011;9696;53.686;10.094;2022-09-09T08:56:32;4.63;;;2.22;;
19127;SDS011;9696;53.686;10.094;2022-09-09T08:59:02;3.58;;;1.92;;
19127;SDS011;9696;53.686;10.094;2022-09-09T09:01:41;5.68;;;2.13;;
19127;SDS011;9696;53.686;10.094;2022-09-09T09:04:29;6.07;;;2.35;;
19127;SDS011;9696;53.686;10.094;2022-09-09T09:07:14;3.78;;;2.10;;
19127;SDS011;9696;53.686;10.094;2022-09-09T09:09:54;7.00;;;2.33;;
19127;SDS011;9696;53.686;10.094;2022-09-09T09:12:32;3.53;;;2.00;;
19127;SDS011;9696;53.686;10.094;2022-09-09T09:15:09;2.60;;;1.80;;
19127;SDS011;9696;53.686;10.094;2022-09-09T09:17:44;3.33;;;1.80;;
19127;SDS011;9696;53.686;10.094;2022-09-09T09:20:13;8.02;;;1.85;;
19127;SDS011;9696;53.686;10.094;2022-09-09T09:22:47;6.70;;;2.22;;
19127;SDS011;9696;53.686;10.094;2022-09-09T09:25:21;4.75;;;2.08;;
19127;SDS011;9696;53.686;10.094;2022-09-09T09:27:57;4.05;;;1.70;;
19127;SDS011;9696;53.686;10.094;2022-09-09T09:30:31;2.78;;;1.75;;
19127;SDS011;9696;53.686;10.094;2022-09-09T09:33:10;3.95;;;2.10;;
19127;SDS011;9696;53.686;10.094;2022-09-09T09:35:46;7.18;;;1.92;;
19127;SDS011;9696;53.686;10.094;2022-09-09T09:38:16;6.80;;;1.85;;
19127;SDS011;9696;53.686;10.094;2022-09-09T09:41:08;3.35;;;1.90;;
19127;SDS011;9696;53.686;10.094;2022-09-09T09:43:39;2.67;;;2.00;;
19127;SDS011;9696;53.686;10.094;2022-09-09T09:46:19;3.35;;;1.83;;
19127;SDS011;9696;53.686;10.094;2022-09-09T09:48:56;3.67;;;1.40;;
19127;SDS011;9696;53.686;10.094;2022-09-09T09:51:27;2.40;;;1.27;;
19127;SDS011;9696;53.686;10.094;2022-09-09T09:54:04;4.80;;;1.63;;
19127;SDS011;9696;53.686;10.094;2022-09-09T09:56:45;3.03;;;1.38;;
19127;SDS011;9696;53.686;10.094;2022-09-09T09:59:20;4.95;;;1.52;;
19127;SDS011;9696;53.686;10.094;2022-09-09T10:02:06;6.57;;;1.63;;
19127;SDS011;9696;53.686;10.094;2022-09-09T10:04:43;4.75;;;1.83;;
19127;SDS011;9696;53.686;10.094;2022-09-09T10:07:17;4.30;;;1.60;;
19127;SDS011;9696;53.686;10.094;2022-09-09T10:09:48;7.70;;;1.65;;
19127;SDS011;9696;53.686;10.094;2022-09-09T10:12:27;4.05;;;1.85;;
19127;SDS011;9696;53.686;10.094;2022-09-09T10:15:14;3.15;;;1.58;;
19127;SDS011;9696;53.686;10.094;2022-09-09T10:18:13;5.78;;;1.50;;
19127;SDS011;9696;53.686;10.094;2022-09-09T10:20:54;3.33;;;1.60;;
19127;SDS011;9696;53.686;10.094;2022-09-09T10:23:38;3.70;;;1.23;;
19127;SDS011;9696;53.686;10.094;2022-09-09T10:26:24;4.75;;;1.30;;
19127;SDS011;9696;53.686;10.094;2022-09-09T10:29:13;3.58;;;1.02;;
19127;SDS011;9696;53.686;10.094;2022-09-09T10:31:54;6.10;;;1.30;;
19127;SDS011;9696;53.686;10.094;2022-09-09T10:34:39;3.08;;;0.93;;
19127;SDS011;9696;53.686;10.094;2022-09-09T10:37:33;2.75;;;0.80;;
19127;SDS011;9696;53.686;10.094;2022-09-09T10:40:18;1.65;;;0.75;;
19127;SDS011;9696;53.686;10.094;2022-09-09T10:42:59;2.20;;;0.75;;
19127;SDS011;9696;53.686;10.094;2022-09-09T10:45:41;2.00;;;0.80;;
19127;SDS011;9696;53.686;10.094;2022-09-09T10:48:28;3.28;;;0.80;;
19127;SDS011;9696;53.686;10.094;2022-09-09T10:51:09;1.42;;;0.70;;
19127;SDS011;9696;53.686;10.094;2022-09-09T10:54:09;5.63;;;0.50;;
19127;SDS011;9696;53.686;10.094;2022-09-09T10:56:49;3.95;;;0.80;;
19127;SDS011;9696;53.686;10.094;2022-09-09T10:59:23;1.58;;;0.52;;
19127;SDS011;9696;53.686;10.094;2022-09-09T11:01:58;1.95;;;0.70;;
19127;SDS011;9696;53.686;10.094;2022-09-09T11:04:35;1.23;;;0.47;;
19127;SDS011;9696;53.686;10.094;2022-09-09T11:07:12;2.65;;;0.77;;
19127;SDS011;9696;53.686;10.094;2022-09-09T11:09:49;10.00;;;0.90;;
19127;SDS011;9696;53.686;10.094;2022-09-09T11:12:25;2.28;;;0.70;;
19127;SDS011;9696;53.686;10.094;2022-09-09T11:14:58;1.40;;;0.50;;
19127;SDS011;9696;53.686;10.094;2022-09-09T11:17:36;3.47;;;0.70;;
19127;SDS011;9696;53.686;10.094;2022-09-09T11:20:11;2.67;;;1.00;;
19127;SDS011;9696;53.686;10.094;2022-09-09T11:22:43;3.13;;;0.70;;
19127;SDS011;9696;53.686;10.094;2022-09-09T11:25:17;0.93;;;0.43;;
19127;SDS011;9696;53.686;10.094;2022-09-09T11:28:02;2.88;;;0.80;;
19127;SDS011;9696;53.686;10.094;2022-09-09T11:30:50;1.67;;;0.40;;
19127;SDS011;9696;53.686;10.094;2022-09-09T11:36:36;2.25;;;0.65;;
19127;SDS011;9696;53.686;10.094;2022-09-09T11:42:42;1.27;;;0.57;;
19127;SDS011;9696;53.686;10.094;2022-09-09T11:45:15;2.10;;;0.68;;
19127;SDS011;9696;53.686;10.094;2022-09-09T11:47:53;2.58;;;0.57;;
19127;SDS011;9696;53.686;10.094;2022-09-09T11:50:35;1.85;;;0.45;;
19127;SDS011;9696;53.686;10.094;2022-09-09T11:53:18;1.13;;;0.60;;
19127;SDS011;9696;53.686;10.094;2022-09-09T11:56:00;3.28;;;0.65;;
19127;SDS011;9696;53.686;10.094;2022-09-09T11:58:33;2.45;;;0.60;;
19127;SDS011;9696;53.686;10.094;2022-09-09T12:01:25;0.95;;;0.50;;
19127;SDS011;9696;53.686;10.094;2022-09-09T12:04:10;5.30;;;0.60;;
19127;SDS011;9696;53.686;10.094;2022-09-09T12:06:50;4.88;;;0.60;;
19127;SDS011;9696;53.686;10.094;2022-09-09T12:09:24;1.88;;;0.47;;
19127;SDS011;9696;53.686;10.094;2022-09-09T12:12:16;2.97;;;0.50;;
19127;SDS011;9696;53.686;10.094;2022-09-09T12:14:55;2.83;;;0.68;;
19127;SDS011;9696;53.686;10.094;2022-09-09T12:17:27;2.53;;;0.70;;
19127;SDS011;9696;53.686;10.094;2022-09-09T12:20:02;3.33;;;0.80;;
19127;SDS011;9696;53.686;10.094;2022-09-09T12:22:39;1.63;;;0.63;;
19127;SDS011;9696;53.686;10.094;2022-09-09T12:25:29;1.73;;;0.60;;
19127;SDS011;9696;53.686;10.094;2022-09-09T12:28:17;2.13;;;0.63;;
19127;SDS011;9696;53.686;10.094;2022-09-09T12:30:49;4.10;;;0.90;;
19127;SDS011;9696;53.686;10.094;2022-09-09T12:33:24;3.20;;;0.80;;
19127;SDS011;9696;53.686;10.094;2022-09-09T12:36:02;1.85;;;0.50;;
19127;SDS011;9696;53.686;10.094;2022-09-09T12:38:36;2.60;;;0.50;;
19127;SDS011;9696;53.686;10.094;2022-09-09T12:41:15;6.38;;;0.60;;
19127;SDS011;9696;53.686;10.094;2022-09-09T12:43:47;1.65;;;0.55;;
19127;SDS011;9696;53.686;10.094;2022-09-09T12:46:22;1.50;;;0.80;;
19127;SDS011;9696;53.686;10.094;2022-09-09T12:48:58;6.70;;;0.80;;
19127;SDS011;9696;53.686;10.094;2022-09-09T12:51:28;3.55;;;0.82;;
19127;SDS011;9696;53.686;10.094;2022-09-09T12:54:00;2.70;;;0.65;;
19127;SDS011;9696;53.686;10.094;2022-09-09T12:56:30;10.20;;;1.05;;
19127;SDS011;9696;53.686;10.094;2022-09-09T12:59:02;2.17;;;1.13;;
19127;SDS011;9696;53.686;10.094;2022-09-09T13:01:32;3.97;;;0.70;;
19127;SDS011;9696;53.686;10.094;2022-09-09T13:04:01;2.33;;;0.90;;
19127;SDS011;9696;53.686;10.094;2022-09-09T13:06:31;1.02;;;0.77;;
19127;SDS011;9696;53.686;10.094;2022-09-09T13:09:02;2.75;;;0.60;;
19127;SDS011;9696;53.686;10.094;2022-09-09T13:11:34;2.97;;;0.90;;
19127;SDS011;9696;53.686;10.094;2022-09-09T13:14:12;3.20;;;0.90;;
19127;SDS011;9696;53.686;10.094;2022-09-09T13:16:54;3.97;;;1.10;;
19127;SDS011;9696;53.686;10.094;2022-09-09T13:19:25;1.85;;;0.77;;
19127;SDS011;9696;53.686;10.094;2022-09-09T13:21:58;17.17;;;1.30;;
19127;SDS011;9696;53.686;10.094;2022-09-09T13:24:30;7.38;;;1.00;;
19127;SDS011;9696;53.686;10.094;2022-09-09T13:27:02;2.92;;;1.10;;
19127;SDS011;9696;53.686;10.094;2022-09-09T13:29:33;4.15;;;0.90;;
19127;SDS011;9696;53.686;10.094;2022-09-09T13:32:03;2.65;;;1.10;;
19127;SDS011;9696;53.686;10.094;2022-09-09T13:34:34;2.45;;;1.30;;
19127;SDS011;9696;53.686;10.094;2022-09-09T13:37:04;2.92;;;1.08;;
19127;SDS011;9696;53.686;10.094;2022-09-09T13:39:50;1.75;;;1.08;;
19127;SDS011;9696;53.686;10.094;2022-09-09T13:42:22;3.25;;;1.70;;
19127;SDS011;9696;53.686;10.094;2022-09-09T13:44:54;5.88;;;1.17;;
19127;SDS011;9696;53.686;10.094;2022-09-09T13:47:27;4.82;;;0.88;;
19127;SDS011;9696;53.686;10.094;2022-09-09T13:50:09;2.25;;;0.90;;
19127;SDS011;9696;53.686;10.094;2022-09-09T13:52:47;8.30;;;1.10;;
19127;SDS011;9696;53.686;10.094;2022-09-09T13:55:19;2.30;;;1.20;;
19127;SDS011;9696;53.686;10.094;2022-09-09T13:57:54;2.40;;;1.10;;
19127;SDS011;9696;53.686;10.094;2022-09-09T14:00:24;2.80;;;1.20;;
19127;SDS011;9696;53.686;10.094;2022-09-09T14:02:54;3.00;;;1.00;;
19127;SDS011;9696;53.686;10.094;2022-09-09T14:05:23;2.75;;;1.35;;
19127;SDS011;9696;53.686;10.094;2022-09-09T14:07:52;2.28;;;1.10;;
19127;SDS011;9696;53.686;10.094;2022-09-09T14:10:23;3.70;;;1.35;;
19127;SDS011;9696;53.686;10.094;2022-09-09T14:12:51;2.42;;;1.30;;
19127;SDS011;9696;53.686;10.094;2022-09-09T14:15:20;4.40;;;1.27;;
19127;SDS011;9696;53.686;10.094;2022-09-09T14:17:49;3.45;;;1.30;;
19127;SDS011;9696;53.686;10.094;2022-09-09T14:20:19;2.53;;;1.40;;
19127;SDS011;9696;53.686;10.094;2022-09-09T14:22:47;2.30;;;1.55;;
19127;SDS011;9696;53.686;10.094;2022-09-09T14:25:16;4.47;;;1.70;;
19127;SDS011;9696;53.686;10.094;2022-09-09T14:27:47;6.50;;;1.75;;
19127;SDS011;9696;53.686;10.094;2022-09-09T14:30:17;4.85;;;1.88;;
19127;SDS011;9696;53.686;10.094;2022-09-09T14:32:46;2.70;;;1.58;;
19127;SDS011;9696;53.686;10.094;2022-09-09T14:35:15;6.20;;;2.30;;
19127;SDS011;9696;53.686;10.094;2022-09-09T14:37:45;8.98;;;2.00;;
19127;SDS011;9696;53.686;10.094;2022-09-09T14:40:14;7.22;;;2.22;;
19127;SDS011;9696;53.686;10.094;2022-09-09T14:42:43;5.50;;;1.70;;
19127;SDS011;9696;53.686;10.094;2022-09-09T14:45:13;6.53;;;1.85;;
19127;SDS011;9696;53.686;10.094;2022-09-09T14:47:42;5.65;;;2.28;;
19127;SDS011;9696;53.686;10.094;2022-09-09T14:50:11;5.63;;;2.40;;
19127;SDS011;9696;53.686;10.094;2022-09-09T14:52:40;5.85;;;2.25;;
19127;SDS011;9696;53.686;10.094;2022-09-09T14:55:09;6.57;;;1.87;;
19127;SDS011;9696;53.686;10.094;2022-09-09T14:57:38;7.60;;;2.33;;
19127;SDS011;9696;53.686;10.094;2022-09-09T15:00:08;4.95;;;2.42;;
19127;SDS011;9696;53.686;10.094;2022-09-09T15:02:40;7.45;;;2.30;;
19127;SDS011;9696;53.686;10.094;2022-09-09T15:05:09;2.58;;;2.10;;
19127;SDS011;9696;53.686;10.094;2022-09-09T15:07:38;29.15;;;2.63;;
19127;SDS011;9696;53.686;10.094;2022-09-09T15:10:07;8.32;;;2.70;;
19127;SDS011;9696;53.686;10.094;2022-09-09T15:12:37;4.82;;;1.90;;
19127;SDS011;9696;53.686;10.094;2022-09-09T15:15:07;5.43;;;1.80;;
19127;SDS011;9696;53.686;10.094;2022-09-09T15:17:36;3.65;;;2.10;;
19127;SDS011;9696;53.686;10.094;2022-09-09T15:20:08;4.90;;;1.98;;
19127;SDS011;9696;53.686;10.094;2022-09-09T15:22:37;4.03;;;1.80;;
19127;SDS011;9696;53.686;10.094;2022-09-09T15:25:08;7.37;;;2.00;;
19127;SDS011;9696;53.686;10.094;2022-09-09T15:27:39;6.68;;;1.67;;
19127;SDS011;9696;53.686;10.094;2022-09-09T15:30:08;4.43;;;1.50;;